Time;durP1;ratioP1;P1;durP2;ratioP2;P2;SDS_P1;SDS_P2;PMS_P1;PMS_P2;Temp;Humidity;BMP_temperature;BMP_pressure;BME280_temperature;BME280_humidity;BME280_pressure;Samples;Min_cycle;Max_cycle;Signal;HPM_P1;HPM_P2
2021/01/31 00:01:34;;;;;;;13.13;9.47;;;2.70;99.90;;;;;;5099495;28;20178;-90
2021/01/31 00:04:01;;;;;;;12.07;9.10;;;2.80;99.90;;;;;;5133690;27;20215;-89
2021/01/31 00:06:26;;;;;;;11.57;9.10;;;2.70;99.90;;;;;;5139800;27;20647;-87
2021/01/31 00:08:52;;;;;;;13.47;9.30;;;2.80;99.90;;;;;;5119902;27;20178;-89
2021/01/31 00:11:18;;;;;;;11.53;8.60;;;2.80;99.90;;;;;;5138291;27;20634;-90
2021/01/31 00:13:45;;;;;;;10.00;7.90;;;2.70;99.90;;;;;;5120038;27;20286;-87
2021/01/31 00:16:11;;;;;;;10.33;8.30;;;2.70;99.90;;;;;;5119826;27;20535;-89
2021/01/31 00:18:37;;;;;;;12.90;9.33;;;2.70;99.90;;;;;;5119351;27;20181;-86
2021/01/31 00:21:03;;;;;;;11.57;9.00;;;2.70;99.90;;;;;;5118354;27;20214;-90
2021/01/31 00:23:29;;;;;;;8.50;6.17;;;2.70;99.90;;;;;;5120164;27;20193;-90
2021/01/31 00:25:55;;;;;;;12.07;9.93;;;2.60;99.90;;;;;;5118922;27;20183;-91
2021/01/31 00:28:23;;;;;;;10.57;6.80;;;2.70;99.90;;;;;;5118417;27;20174;-90
2021/01/31 00:30:50;;;;;;;11.07;8.27;;;2.60;99.90;;;;;;5086924;28;20232;-89
2021/01/31 00:33:20;;;;;;;11.83;8.63;;;2.70;99.90;;;;;;5099172;28;20208;-85
2021/01/31 00:35:47;;;;;;;11.33;9.07;;;2.60;99.90;;;;;;5098984;28;20174;-88
2021/01/31 00:38:15;;;;;;;10.37;8.00;;;2.70;99.90;;;;;;5098765;28;20167;-87
2021/01/31 00:40:42;;;;;;;10.90;7.80;;;2.70;99.90;;;;;;5116808;28;20203;-89
2021/01/31 00:43:08;;;;;;;12.00;8.53;;;2.60;99.90;;;;;;5104790;28;20249;-88
2021/01/31 00:45:34;;;;;;;12.77;8.83;;;2.60;99.90;;;;;;5099641;28;20181;-88
2021/01/31 00:48:00;;;;;;;11.20;7.87;;;2.60;99.90;;;;;;5141189;28;20174;-87
2021/01/31 00:50:37;;;;;;;12.07;8.63;;;2.70;99.90;;;;;;5123046;28;20190;-90
2021/01/31 00:53:04;;;;;;;10.60;7.97;;;2.80;99.90;;;;;;5109259;28;20657;-87
2021/01/31 00:55:29;;;;;;;11.47;7.03;;;2.90;99.90;;;;;;5106600;28;20178;-91
2021/01/31 00:57:58;;;;;;;10.27;8.33;;;2.60;99.90;;;;;;5105410;28;20252;-86
2021/01/31 01:00:34;;;;;;;12.37;8.60;;;2.60;99.90;;;;;;5102147;28;20203;-87
2021/01/31 01:03:01;;;;;;;11.53;8.63;;;2.60;99.90;;;;;;5120348;28;20167;-92
2021/01/31 01:05:30;;;;;;;9.10;6.37;;;2.60;99.90;;;;;;5099038;28;20171;-86
2021/01/31 01:07:56;;;;;;;10.93;7.77;;;2.60;99.90;;;;;;5098563;28;20219;-90
2021/01/31 01:10:28;;;;;;;10.00;8.60;;;2.50;99.90;;;;;;5096589;28;20542;-88
2021/01/31 01:12:54;;;;;;;11.70;8.30;;;2.50;99.90;;;;;;5097042;28;20167;-87
2021/01/31 01:15:24;;;;;;;13.83;9.87;;;2.50;99.90;;;;;;5097448;28;20171;-90
2021/01/31 01:17:50;;;;;;;11.73;8.33;;;2.50;99.90;;;;;;5098219;28;20703;-85
2021/01/31 01:20:16;;;;;;;10.93;7.97;;;2.50;99.90;;;;;;5097153;28;20214;-91
2021/01/31 01:22:42;;;;;;;11.50;8.93;;;2.40;99.90;;;;;;5098089;28;20179;-89
2021/01/31 01:25:09;;;;;;;10.57;8.50;;;2.50;99.90;;;;;;5097850;28;20596;-88
2021/01/31 01:27:37;;;;;;;12.23;8.87;;;2.50;99.90;;;;;;5097260;28;20221;-89
2021/01/31 01:30:04;;;;;;;12.10;9.00;;;2.40;99.90;;;;;;5096953;28;20701;-89
2021/01/31 01:32:30;;;;;;;12.27;9.33;;;2.40;99.90;;;;;;5097430;28;20189;-89
2021/01/31 01:34:56;;;;;;;17.13;9.83;;;2.40;99.90;;;;;;5097599;28;20171;-86
2021/01/31 01:37:22;;;;;;;12.33;9.83;;;2.40;99.90;;;;;;5097999;28;20179;-88
2021/01/31 01:39:48;;;;;;;13.33;9.47;;;2.40;99.90;;;;;;5098126;28;20229;-88
2021/01/31 01:42:14;;;;;;;13.73;10.10;;;2.40;99.90;;;;;;5098026;28;20529;-86
2021/01/31 01:44:40;;;;;;;13.80;10.10;;;2.40;99.90;;;;;;5097488;28;20196;-87
2021/01/31 01:47:15;;;;;;;12.60;9.23;;;2.30;99.90;;;;;;5097841;28;20175;-89
2021/01/31 01:49:45;;;;;;;14.13;10.07;;;2.20;99.90;;;;;;5097377;28;20190;-90
2021/01/31 01:52:37;;;;;;;12.23;9.10;;;2.10;99.90;;;;;;5097809;28;20266;-88
2021/01/31 01:55:12;;;;;;;11.97;8.90;;;2.10;99.90;;;;;;5096743;28;20665;-89
2021/01/31 01:57:53;;;;;;;12.80;10.17;;;2.10;99.90;;;;;;5097494;28;20683;-91
2021/01/31 02:00:20;;;;;;;12.87;8.97;;;2.10;99.90;;;;;;5097379;28;20206;-88
2021/01/31 02:03:10;;;;;;;13.83;9.17;;;2.00;99.90;;;;;;5097241;28;20163;-89
2021/01/31 02:05:37;;;;;;;12.67;9.47;;;2.00;99.90;;;;;;5097018;28;20610;-86
2021/01/31 02:08:04;;;;;;;14.50;11.20;;;2.00;99.90;;;;;;5096963;28;20174;-87
2021/01/31 02:10:30;;;;;;;13.50;10.87;;;2.00;99.90;;;;;;5097242;28;20183;-90
2021/01/31 02:13:01;;;;;;;15.07;10.63;;;2.00;99.90;;;;;;5097148;28;20174;-89
2021/01/31 02:15:28;;;;;;;15.97;10.77;;;2.00;99.90;;;;;;5097120;28;20265;-88
2021/01/31 02:18:00;;;;;;;13.83;10.03;;;2.00;99.90;;;;;;5115298;28;20175;-88
2021/01/31 02:20:32;;;;;;;13.93;10.97;;;2.00;99.90;;;;;;5097304;28;20686;-89
2021/01/31 02:23:28;;;;;;;14.03;9.90;;;2.00;99.90;;;;;;5115199;28;20180;-90
2021/01/31 02:26:16;;;;;;;13.57;9.93;;;2.00;99.90;;;;;;5097453;28;20187;-86
2021/01/31 02:29:43;;;;;;;14.70;11.53;;;1.90;99.90;;;;;;5096570;28;20170;-89
2021/01/31 02:32:29;;;;;;;13.27;9.97;;;1.90;99.90;;;;;;5028656;28;20190;-89
2021/01/31 02:35:04;;;;;;;14.60;10.93;;;1.90;99.90;;;;;;5096392;28;20171;-90
2021/01/31 02:37:55;;;;;;;12.40;8.97;;;1.80;99.90;;;;;;5097055;28;20224;-86
2021/01/31 02:40:26;;;;;;;15.13;10.10;;;1.80;99.90;;;;;;5096326;28;20245;-89
2021/01/31 02:43:15;;;;;;;13.67;10.10;;;1.80;99.90;;;;;;5096262;28;20167;-88
2021/01/31 02:45:48;;;;;;;14.20;9.70;;;1.70;99.90;;;;;;5096523;28;20175;-86
2021/01/31 02:48:14;;;;;;;12.57;7.30;;;1.60;99.90;;;;;;5095860;28;20178;-89
2021/01/31 02:50:48;;;;;;;14.13;10.43;;;1.60;99.90;;;;;;5096985;28;20171;-87
2021/01/31 02:53:20;;;;;;;15.90;10.67;;;1.50;99.90;;;;;;5096881;28;20538;-90
2021/01/31 02:55:52;;;;;;;13.20;10.27;;;1.50;99.90;;;;;;5096522;28;20232;-91
2021/01/31 02:58:34;;;;;;;14.37;11.23;;;1.50;99.90;;;;;;5096317;28;20174;-90
2021/01/31 03:01:18;;;;;;;13.97;10.03;;;1.50;99.90;;;;;;5096644;28;20687;-89
2021/01/31 03:04:01;;;;;;;13.53;10.17;;;1.40;99.90;;;;;;5097493;28;20190;-89
2021/01/31 03:06:31;;;;;;;14.40;9.90;;;1.40;99.90;;;;;;5095819;28;20236;-87
2021/01/31 03:09:15;;;;;;;14.30;10.17;;;1.40;99.90;;;;;;5114432;28;20170;-89
2021/01/31 03:11:53;;;;;;;14.37;10.97;;;1.40;99.90;;;;;;5096420;28;20197;-90
2021/01/31 03:14:26;;;;;;;15.83;10.70;;;1.40;99.90;;;;;;5096468;28;20265;-89
2021/01/31 03:17:03;;;;;;;12.53;9.83;;;1.30;99.90;;;;;;5096404;28;20589;-86
2021/01/31 03:19:34;;;;;;;15.73;11.17;;;1.50;99.90;;;;;;5096154;28;20190;-90
2021/01/31 03:22:07;;;;;;;14.97;11.07;;;1.40;99.90;;;;;;5096266;28;20171;-89
2021/01/31 03:24:37;;;;;;;16.03;12.13;;;1.30;99.90;;;;;;5096073;28;20175;-90
2021/01/31 03:27:14;;;;;;;16.67;11.07;;;1.30;99.90;;;;;;5095952;28;20189;-90
2021/01/31 03:29:40;;;;;;;16.60;11.97;;;1.30;99.90;;;;;;5095456;28;20525;-86
2021/01/31 03:32:41;;;;;;;16.07;12.00;;;1.30;99.90;;;;;;5097880;28;20215;-88
2021/01/31 03:35:21;;;;;;;17.10;11.10;;;1.30;99.90;;;;;;5114288;28;20205;-90
2021/01/31 03:37:58;;;;;;;15.50;11.33;;;1.30;99.90;;;;;;5096120;28;20166;-89
2021/01/31 03:40:26;;;;;;;13.77;11.03;;;1.30;99.90;;;;;;5114227;28;20297;-86
2021/01/31 03:42:51;;;;;;;14.13;10.43;;;1.30;99.90;;;;;;5095981;28;20535;-87
2021/01/31 03:45:24;;;;;;;14.87;11.83;;;1.20;99.90;;;;;;5096193;28;20177;-90
2021/01/31 03:47:58;;;;;;;16.73;12.70;;;1.50;99.90;;;;;;5096066;28;20194;-89
2021/01/31 03:50:25;;;;;;;17.80;13.07;;;1.30;99.90;;;;;;5096277;28;20660;-87
2021/01/31 03:52:50;;;;;;;14.70;11.13;;;1.20;99.90;;;;;;5097319;28;20631;-91
2021/01/31 03:55:16;;;;;;;14.80;11.63;;;1.20;99.90;;;;;;5095815;28;20181;-91
2021/01/31 03:57:51;;;;;;;13.87;10.57;;;1.30;99.90;;;;;;5096446;28;20267;-89
2021/01/31 04:00:23;;;;;;;16.43;11.10;;;1.30;99.90;;;;;;5114073;28;20323;-90
2021/01/31 04:03:18;;;;;;;16.27;11.93;;;1.20;99.90;;;;;;5095981;28;20171;-86
2021/01/31 04:06:03;;;;;;;15.93;12.37;;;1.20;99.90;;;;;;5095849;28;20715;-86
2021/01/31 04:08:31;;;;;;;16.73;12.77;;;1.20;99.90;;;;;;5095673;28;20167;-87
2021/01/31 04:10:57;;;;;;;10.87;8.03;;;1.10;99.90;;;;;;5095867;28;20670;-86
2021/01/31 04:13:23;;;;;;;15.80;12.37;;;1.10;99.90;;;;;;5113832;28;20171;-90
2021/01/31 04:15:57;;;;;;;16.80;13.43;;;1.10;99.90;;;;;;5094820;28;20629;-87
2021/01/31 04:18:23;;;;;;;15.27;11.03;;;1.10;99.90;;;;;;5097034;28;20711;-87
2021/01/31 04:20:52;;;;;;;16.90;12.50;;;1.10;99.90;;;;;;5098409;28;20206;-89
2021/01/31 04:23:18;;;;;;;15.63;11.50;;;1.10;99.90;;;;;;5099707;28;20167;-88
2021/01/31 04:25:44;;;;;;;18.30;13.60;;;1.00;99.90;;;;;;5116699;28;20179;-85
2021/01/31 04:28:17;;;;;;;17.00;12.73;;;1.00;99.90;;;;;;5099336;28;20178;-86
2021/01/31 04:30:44;;;;;;;12.13;8.73;;;1.10;99.90;;;;;;5098679;28;20166;-86
2021/01/31 04:33:13;;;;;;;17.40;12.80;;;1.20;99.90;;;;;;5098810;28;20175;-89
2021/01/31 04:35:39;;;;;;;20.07;11.97;;;1.10;99.90;;;;;;5099163;28;20184;-88
2021/01/31 04:38:05;;;;;;;17.30;12.93;;;1.00;99.90;;;;;;5114674;27;20186;-90
2021/01/31 04:40:31;;;;;;;17.23;12.13;;;1.00;99.90;;;;;;5123599;27;20191;-87
2021/01/31 04:42:57;;;;;;;16.20;11.83;;;1.00;99.90;;;;;;5118444;28;20211;-87
2021/01/31 04:45:24;;;;;;;14.53;10.67;;;1.00;99.90;;;;;;5125253;28;20227;-85
2021/01/31 04:48:15;;;;;;;16.90;13.00;;;1.00;99.90;;;;;;5105662;28;20188;-87
2021/01/31 04:51:06;;;;;;;16.67;12.80;;;1.00;99.90;;;;;;5099521;28;20643;-87
2021/01/31 04:53:50;;;;;;;16.40;12.93;;;1.00;99.90;;;;;;5098922;28;20164;-88
2021/01/31 04:56:51;;;;;;;14.90;11.40;;;1.00;99.90;;;;;;5099055;28;20187;-90
2021/01/31 04:59:38;;;;;;;17.73;12.93;;;0.90;99.90;;;;;;5100026;28;20196;-89
2021/01/31 05:02:07;;;;;;;16.03;13.03;;;1.00;99.90;;;;;;5099031;28;20216;-86
2021/01/31 05:04:39;;;;;;;17.43;13.40;;;1.10;99.90;;;;;;5098404;28;20171;-89
2021/01/31 05:07:06;;;;;;;16.90;13.03;;;1.10;99.90;;;;;;5116664;28;20171;-88
2021/01/31 05:09:32;;;;;;;16.57;13.47;;;1.00;99.90;;;;;;5097426;28;20171;-89
2021/01/31 05:12:21;;;;;;;16.43;13.47;;;1.10;99.90;;;;;;5098066;28;20662;-86
2021/01/31 05:15:02;;;;;;;15.57;12.40;;;1.00;99.90;;;;;;5098115;28;20167;-89
2021/01/31 05:17:29;;;;;;;18.10;13.67;;;0.90;99.90;;;;;;5098378;28;20709;-91
2021/01/31 05:19:56;;;;;;;15.07;13.37;;;0.90;99.90;;;;;;5098095;28;20206;-91
2021/01/31 05:22:27;;;;;;;18.57;13.57;;;0.80;99.90;;;;;;5097883;28;20179;-90
2021/01/31 05:24:54;;;;;;;18.77;13.93;;;0.90;99.90;;;;;;5098207;28;20224;-90
2021/01/31 05:27:28;;;;;;;16.77;13.00;;;0.80;99.90;;;;;;5098186;28;20167;-89
2021/01/31 05:29:53;;;;;;;18.87;13.53;;;0.80;99.90;;;;;;5097447;28;20203;-86
2021/01/31 05:32:19;;;;;;;18.60;14.23;;;0.80;99.90;;;;;;5098442;28;20174;-88
2021/01/31 05:34:49;;;;;;;20.20;15.27;;;0.90;99.90;;;;;;5097814;28;20202;-89
2021/01/31 05:37:21;;;;;;;17.80;13.37;;;0.90;99.90;;;;;;5097944;28;20568;-88
2021/01/31 05:39:55;;;;;;;18.50;14.67;;;0.90;99.90;;;;;;5098203;28;20400;-89
2021/01/31 05:42:24;;;;;;;18.57;13.93;;;1.00;99.90;;;;;;5097636;28;20175;-89
2021/01/31 05:45:05;;;;;;;18.53;13.33;;;0.90;99.90;;;;;;5097690;28;20167;-89
2021/01/31 05:47:38;;;;;;;17.47;13.77;;;0.90;99.90;;;;;;5098026;28;20175;-87
2021/01/31 05:50:37;;;;;;;19.17;14.70;;;0.90;99.90;;;;;;5097683;28;20186;-88
2021/01/31 05:53:21;;;;;;;16.70;13.47;;;0.90;99.90;;;;;;5115526;28;20173;-87
2021/01/31 05:55:47;;;;;;;17.07;13.40;;;0.80;99.90;;;;;;5097652;28;20175;-87
2021/01/31 05:58:20;;;;;;;18.40;13.67;;;0.70;99.90;;;;;;5096504;28;20212;-89
2021/01/31 06:00:48;;;;;;;19.50;13.80;;;0.80;99.90;;;;;;5097179;28;20241;-87
2021/01/31 06:03:20;;;;;;;17.83;12.93;;;0.80;99.90;;;;;;5097817;28;20177;-88
2021/01/31 06:05:46;;;;;;;18.67;11.53;;;0.70;99.90;;;;;;5097377;28;20171;-86
2021/01/31 06:08:30;;;;;;;21.20;13.73;;;0.70;99.90;;;;;;5097536;28;20174;-90
2021/01/31 06:11:29;;;;;;;19.27;13.37;;;0.70;99.90;;;;;;5097156;28;20660;-88
2021/01/31 06:14:14;;;;;;;16.33;13.63;;;0.60;99.90;;;;;;5054231;28;20540;-87
2021/01/31 06:16:41;;;;;;;20.63;14.90;;;0.60;99.90;;;;;;5097686;28;20206;-85
2021/01/31 06:19:24;;;;;;;20.13;14.83;;;0.60;99.90;;;;;;5097685;28;20171;-88
2021/01/31 06:21:49;;;;;;;18.77;13.10;;;0.70;99.90;;;;;;5115104;28;20214;-88
2021/01/31 06:24:28;;;;;;;16.97;11.67;;;0.60;99.90;;;;;;5097255;28;20182;-85
2021/01/31 06:26:56;;;;;;;18.23;14.30;;;0.50;99.90;;;;;;5096584;28;20198;-88
2021/01/31 06:29:34;;;;;;;18.93;14.40;;;0.60;99.90;;;;;;5096935;28;20263;-86
2021/01/31 06:32:11;;;;;;;18.57;13.37;;;0.60;99.90;;;;;;5096871;28;20623;-90
2021/01/31 06:34:43;;;;;;;18.93;13.53;;;0.50;99.90;;;;;;5096777;28;20170;-91
2021/01/31 06:37:23;;;;;;;19.93;13.90;;;0.50;99.90;;;;;;5115300;28;20217;-89
2021/01/31 06:40:26;;;;;;;21.70;14.33;;;0.50;99.90;;;;;;5096375;28;20194;-89
2021/01/31 06:43:24;;;;;;;18.83;14.23;;;0.50;99.90;;;;;;5096427;28;20174;-86
2021/01/31 06:45:59;;;;;;;18.67;10.93;;;0.50;99.90;;;;;;5065731;28;20200;-89
2021/01/31 06:48:59;;;;;;;17.63;11.90;;;0.50;99.90;;;;;;5096976;28;20188;-90
2021/01/31 06:51:35;;;;;;;19.43;14.00;;;0.50;99.90;;;;;;5096736;28;20622;-89
2021/01/31 06:54:38;;;;;;;21.13;14.80;;;0.40;99.90;;;;;;5096817;28;20182;-86
2021/01/31 06:57:30;;;;;;;21.03;15.80;;;0.50;99.90;;;;;;5096785;28;20166;-86
2021/01/31 07:00:06;;;;;;;21.10;13.80;;;0.50;99.90;;;;;;5065188;28;20268;-89
2021/01/31 07:03:04;;;;;;;19.73;14.93;;;0.50;99.90;;;;;;5096554;28;20192;-88
2021/01/31 07:06:06;;;;;;;19.93;14.63;;;0.50;99.90;;;;;;5096213;28;20627;-90
2021/01/31 07:08:44;;;;;;;20.87;14.30;;;0.50;99.90;;;;;;5096619;28;20635;-90
2021/01/31 07:11:15;;;;;;;19.97;14.33;;;0.40;99.90;;;;;;5096408;28;20186;-86
2021/01/31 07:14:02;;;;;;;23.23;16.43;;;0.40;99.90;;;;;;5096446;28;20234;-88
2021/01/31 07:16:47;;;;;;;21.33;14.73;;;0.50;99.90;;;;;;5096514;28;20166;-86
2021/01/31 07:19:27;;;;;;;19.03;14.70;;;0.50;99.90;;;;;;5096009;28;20181;-86
2021/01/31 07:22:02;;;;;;;20.80;15.23;;;0.50;99.90;;;;;;5095360;28;20662;-88
2021/01/31 07:24:52;;;;;;;21.67;14.57;;;0.50;99.90;;;;;;5098008;28;20167;-90
2021/01/31 07:27:30;;;;;;;18.73;14.37;;;0.50;99.90;;;;;;5097264;28;20201;-89
2021/01/31 07:30:15;;;;;;;20.70;15.90;;;0.50;99.90;;;;;;5095836;28;20174;-90
2021/01/31 07:33:02;;;;;;;20.33;14.93;;;0.50;99.90;;;;;;5095717;28;20167;-91
2021/01/31 07:36:03;;;;;;;19.83;14.60;;;0.50;99.90;;;;;;5095772;28;20182;-87
2021/01/31 07:38:37;;;;;;;20.00;15.03;;;0.50;99.90;;;;;;5064975;28;20187;-92
2021/01/31 07:41:03;;;;;;;18.50;13.67;;;0.50;99.90;;;;;;5108223;28;20682;-89
2021/01/31 07:43:32;;;;;;;23.73;15.80;;;0.50;99.90;;;;;;5097171;28;20171;-87
2021/01/31 07:46:02;;;;;;;18.93;14.30;;;0.40;99.90;;;;;;5097141;28;20171;-89
2021/01/31 07:48:41;;;;;;;21.77;14.97;;;0.50;99.90;;;;;;5116737;28;20170;-90
2021/01/31 07:51:09;;;;;;;18.87;14.17;;;0.60;99.90;;;;;;5115386;28;20640;-88
2021/01/31 07:53:42;;;;;;;21.30;15.40;;;0.60;99.90;;;;;;5117408;27;20185;-91
2021/01/31 07:56:35;;;;;;;19.67;14.00;;;0.60;99.90;;;;;;5120322;27;20253;-88
2021/01/31 07:59:09;;;;;;;18.43;13.83;;;0.60;99.90;;;;;;5120235;27;20287;-88
2021/01/31 08:01:41;;;;;;;18.53;13.00;;;0.50;99.90;;;;;;5137659;27;20224;-90
2021/01/31 08:04:16;;;;;;;21.97;16.40;;;0.50;99.90;;;;;;5119850;27;20170;-86
2021/01/31 08:06:41;;;;;;;21.13;15.13;;;0.50;99.90;;;;;;5119849;27;20261;-88
2021/01/31 08:09:07;;;;;;;20.13;14.87;;;0.50;99.90;;;;;;5123350;27;20256;-87
2021/01/31 08:11:36;;;;;;;22.83;15.40;;;0.60;99.90;;;;;;5099419;28;20275;-89
2021/01/31 08:14:02;;;;;;;19.73;14.43;;;0.60;99.90;;;;;;5099111;28;20175;-90
2021/01/31 08:16:49;;;;;;;19.03;13.43;;;0.60;99.90;;;;;;5100417;28;20182;-88
2021/01/31 08:19:14;;;;;;;17.30;12.67;;;0.50;99.90;;;;;;5103516;28;20261;-89
2021/01/31 08:22:01;;;;;;;19.33;14.80;;;0.50;99.90;;;;;;5102995;27;20263;-89
2021/01/31 08:25:04;;;;;;;20.90;12.67;;;0.50;99.90;;;;;;5125348;27;20181;-89
2021/01/31 08:27:40;;;;;;;19.07;14.00;;;0.60;99.90;;;;;;5120409;27;20170;-87
2021/01/31 08:30:30;;;;;;;16.37;12.37;;;0.60;99.90;;;;;;5119852;27;20191;-87
2021/01/31 08:32:59;;;;;;;18.03;12.67;;;0.60;99.90;;;;;;5119951;27;20166;-93
2021/01/31 08:35:36;;;;;;;20.00;13.73;;;0.60;99.90;;;;;;5139872;27;20198;-86
2021/01/31 08:38:16;;;;;;;19.70;13.23;;;0.60;99.90;;;;;;5123284;27;20170;-96
2021/01/31 08:41:01;;;;;;;20.53;14.17;;;0.60;99.90;;;;;;5120322;27;20209;-89
2021/01/31 08:43:35;;;;;;;18.67;13.23;;;0.60;99.90;;;;;;5120502;27;20167;-88
2021/01/31 08:46:13;;;;;;;19.40;12.97;;;0.60;99.90;;;;;;5129930;27;20155;-88
2021/01/31 08:48:39;;;;;;;20.60;14.80;;;0.70;99.90;;;;;;5143772;27;20190;-88
2021/01/31 08:51:19;;;;;;;20.90;14.60;;;0.70;99.90;;;;;;5139546;27;20189;-89
2021/01/31 08:53:44;;;;;;;20.63;15.30;;;0.70;99.90;;;;;;5127139;27;20201;-92
2021/01/31 08:56:32;;;;;;;20.47;14.17;;;0.90;99.90;;;;;;5125569;27;20182;-88
2021/01/31 08:59:09;;;;;;;19.33;11.43;;;0.90;99.90;;;;;;5120084;27;20509;-87
2021/01/31 09:01:43;;;;;;;19.93;14.23;;;0.90;99.90;;;;;;5138335;27;20201;-89
2021/01/31 09:04:16;;;;;;;18.77;13.47;;;0.90;99.90;;;;;;5119508;28;20185;-86
2021/01/31 09:06:44;;;;;;;17.47;12.80;;;0.90;99.90;;;;;;5118634;27;20171;-91
2021/01/31 09:09:37;;;;;;;18.43;12.80;;;0.90;99.90;;;;;;5120632;27;20166;-92
2021/01/31 09:12:07;;;;;;;19.70;14.47;;;1.00;99.90;;;;;;5119368;27;20392;-95
2021/01/31 09:14:41;;;;;;;19.03;13.50;;;0.90;99.90;;;;;;5121227;27;20537;-93
2021/01/31 09:17:11;;;;;;;20.00;13.40;;;0.90;99.90;;;;;;5121074;27;20260;-90
2021/01/31 09:19:37;;;;;;;19.80;14.23;;;0.90;99.90;;;;;;5124450;27;20163;-88
2021/01/31 09:22:08;;;;;;;21.40;13.53;;;0.90;99.90;;;;;;5141534;27;20173;-91
2021/01/31 09:24:40;;;;;;;18.30;13.70;;;1.00;99.90;;;;;;5118652;27;20266;-86
2021/01/31 09:27:08;;;;;;;19.43;13.97;;;1.00;99.90;;;;;;5118628;27;20604;-90
2021/01/31 09:29:34;;;;;;;19.40;14.30;;;1.00;99.90;;;;;;5136614;27;20265;-87
2021/01/31 09:32:19;;;;;;;22.13;14.63;;;1.00;99.90;;;;;;5119430;27;20237;-95
2021/01/31 09:34:46;;;;;;;20.23;14.17;;;1.10;99.90;;;;;;5119409;27;20173;-96
2021/01/31 09:37:21;;;;;;;19.53;14.07;;;1.10;99.90;;;;;;5121027;27;20166;-90
2021/01/31 09:39:49;;;;;;;21.93;14.80;;;1.20;99.90;;;;;;5124853;27;20162;-91
2021/01/31 09:42:15;;;;;;;20.30;14.07;;;1.30;99.90;;;;;;5120251;27;20177;-88
2021/01/31 09:44:54;;;;;;;18.60;14.17;;;1.30;99.90;;;;;;5118023;27;20249;-88
2021/01/31 09:47:21;;;;;;;19.93;14.73;;;1.30;99.90;;;;;;5116993;27;20233;-90
2021/01/31 09:49:57;;;;;;;20.13;15.27;;;1.60;99.90;;;;;;5077312;28;20241;-89
2021/01/31 09:52:23;;;;;;;20.17;14.70;;;1.50;99.90;;;;;;5076867;28;20193;-87
2021/01/31 09:54:49;;;;;;;20.37;15.77;;;1.50;99.90;;;;;;5079006;28;20168;-88
2021/01/31 09:57:28;;;;;;;17.80;13.33;;;1.50;99.90;;;;;;5080748;28;20175;-90
2021/01/31 10:00:10;;;;;;;18.67;12.77;;;1.60;99.90;;;;;;5076881;28;20281;-86
2021/01/31 10:02:37;;;;;;;22.90;15.07;;;1.60;99.90;;;;;;5095656;28;20689;-86
2021/01/31 10:05:10;;;;;;;17.43;13.60;;;1.60;99.90;;;;;;5077479;28;20357;-89
2021/01/31 10:07:40;;;;;;;19.23;14.20;;;1.70;99.90;;;;;;5077401;28;20171;-91
2021/01/31 10:10:29;;;;;;;19.20;13.53;;;1.80;99.90;;;;;;5076342;28;20721;-89
2021/01/31 10:13:16;;;;;;;17.17;13.10;;;1.80;99.90;;;;;;5077188;28;20171;-91
2021/01/31 10:15:49;;;;;;;20.37;13.77;;;1.80;99.90;;;;;;5094074;28;20175;-85
2021/01/31 10:18:28;;;;;;;17.47;13.63;;;1.70;99.90;;;;;;5117739;27;20186;-92
2021/01/31 10:21:14;;;;;;;18.53;13.07;;;1.90;99.90;;;;;;5104952;27;20329;-89
2021/01/31 10:23:40;;;;;;;18.07;12.97;;;1.90;99.90;;;;;;5100763;28;20186;-93
2021/01/31 10:26:10;;;;;;;21.80;13.77;;;1.90;99.90;;;;;;5097684;28;20216;-87
2021/01/31 10:28:44;;;;;;;17.33;13.50;;;1.90;99.90;;;;;;5101588;27;20170;-87
2021/01/31 10:31:26;;;;;;;16.60;12.43;;;2.00;99.90;;;;;;5105974;28;20163;-90
2021/01/31 10:33:53;;;;;;;20.63;14.73;;;2.00;99.90;;;;;;5105333;27;20158;-88
2021/01/31 10:36:30;;;;;;;19.27;13.50;;;2.00;99.90;;;;;;5104333;27;20159;-86
2021/01/31 10:39:04;;;;;;;20.20;13.90;;;2.10;99.90;;;;;;5122166;27;20162;-90
2021/01/31 10:41:30;;;;;;;16.10;12.67;;;2.20;99.90;;;;;;5115370;27;20202;-90
2021/01/31 10:44:03;;;;;;;18.50;13.27;;;2.20;99.90;;;;;;5097358;28;20575;-94
2021/01/31 10:46:30;;;;;;;19.73;13.70;;;2.20;99.90;;;;;;5097353;28;20171;-93
2021/01/31 10:48:56;;;;;;;17.57;13.13;;;2.20;99.90;;;;;;5116004;28;20199;-86
2021/01/31 10:51:23;;;;;;;19.03;13.87;;;2.40;99.90;;;;;;5116192;28;20170;-87
2021/01/31 10:53:48;;;;;;;18.70;13.17;;;2.50;99.90;;;;;;5099999;28;20167;-88
2021/01/31 10:56:14;;;;;;;16.10;11.77;;;2.50;99.90;;;;;;5099071;28;20183;-88
2021/01/31 10:58:40;;;;;;;20.50;13.77;;;2.50;99.90;;;;;;5118691;28;20220;-89
2021/01/31 11:01:06;;;;;;;19.60;13.57;;;2.40;99.90;;;;;;5117336;28;20276;-93
2021/01/31 11:03:32;;;;;;;18.63;12.53;;;2.40;99.90;;;;;;5115921;28;20174;-91
2021/01/31 11:05:59;;;;;;;15.87;11.63;;;2.40;99.90;;;;;;5118477;28;20151;-85
2021/01/31 11:08:29;;;;;;;19.43;13.10;;;2.40;99.90;;;;;;5109954;28;20190;-88
2021/01/31 11:11:00;;;;;;;19.73;13.07;;;2.40;99.90;;;;;;5104490;28;20181;-89
2021/01/31 11:13:26;;;;;;;17.90;12.47;;;2.40;99.90;;;;;;5102857;28;20178;-89
2021/01/31 11:15:52;;;;;;;18.67;14.07;;;2.40;99.90;;;;;;5100816;28;20657;-90
2021/01/31 11:18:20;;;;;;;19.13;14.07;;;2.50;99.90;;;;;;5115807;28;20167;-92
2021/01/31 11:20:47;;;;;;;20.97;13.60;;;2.60;99.90;;;;;;5099766;28;20209;-87
2021/01/31 11:23:14;;;;;;;19.40;13.23;;;2.50;99.90;;;;;;5096821;28;20595;-88
2021/01/31 11:25:40;;;;;;;18.97;12.50;;;2.50;99.90;;;;;;5113762;28;20524;-88
2021/01/31 11:28:11;;;;;;;17.43;12.23;;;2.60;99.90;;;;;;5138644;27;20174;-91
2021/01/31 11:30:42;;;;;;;17.13;13.60;;;2.60;99.90;;;;;;5123402;27;20199;-87
2021/01/31 11:33:09;;;;;;;22.23;14.23;;;2.70;99.90;;;;;;5145701;28;20684;-94
2021/01/31 11:35:38;;;;;;;16.47;12.30;;;2.60;99.90;;;;;;5108832;28;20242;-86
2021/01/31 11:38:04;;;;;;;19.30;13.90;;;2.90;99.90;;;;;;5128213;28;20175;-86
2021/01/31 11:40:32;;;;;;;17.63;12.87;;;2.60;99.90;;;;;;5108357;28;20222;-92
2021/01/31 11:42:59;;;;;;;19.97;14.23;;;2.60;99.90;;;;;;5107366;28;20167;-92
2021/01/31 11:45:32;;;;;;;17.57;13.37;;;2.60;99.90;;;;;;5122579;28;20253;-87
2021/01/31 11:47:58;;;;;;;18.03;12.30;;;2.60;99.90;;;;;;5081204;28;20233;-89
2021/01/31 11:50:25;;;;;;;17.53;13.20;;;2.70;99.90;;;;;;5114489;28;20202;-86
2021/01/31 11:52:51;;;;;;;17.93;12.90;;;2.70;99.90;;;;;;5117873;28;20186;-86
2021/01/31 11:55:17;;;;;;;18.97;13.07;;;2.80;99.90;;;;;;5096047;28;20206;-90
2021/01/31 11:57:44;;;;;;;18.63;13.27;;;3.00;99.90;;;;;;5113971;28;20170;-91
2021/01/31 12:00:17;;;;;;;17.07;12.33;;;3.00;99.90;;;;;;5097505;28;20195;-91
2021/01/31 12:02:43;;;;;;;17.00;12.43;;;3.00;99.90;;;;;;5098907;28;20189;-92
2021/01/31 12:05:12;;;;;;;17.40;12.50;;;3.00;99.90;;;;;;5114280;28;20159;-86
2021/01/31 12:07:39;;;;;;;18.47;13.40;;;3.00;99.90;;;;;;5137424;28;20171;-87
2021/01/31 12:10:06;;;;;;;18.03;12.17;;;3.20;99.90;;;;;;5109391;28;20203;-86
2021/01/31 12:12:32;;;;;;;17.50;12.23;;;3.10;99.90;;;;;;5123305;28;20174;-87
2021/01/31 12:15:06;;;;;;;20.57;11.40;;;3.20;99.90;;;;;;5097806;28;20293;-89
2021/01/31 12:17:36;;;;;;;15.73;11.73;;;3.10;99.90;;;;;;5098850;28;20265;-86
2021/01/31 12:20:03;;;;;;;16.93;12.13;;;3.00;99.90;;;;;;5103731;28;20195;-87
2021/01/31 12:22:59;;;;;;;17.53;13.07;;;3.10;99.90;;;;;;5120337;28;20277;-85
2021/01/31 12:25:25;;;;;;;15.70;11.73;;;3.20;99.90;;;;;;5105119;28;20183;-90
2021/01/31 12:27:57;;;;;;;15.93;11.93;;;3.20;99.90;;;;;;5104370;28;20167;-93
2021/01/31 12:30:24;;;;;;;16.10;12.03;;;3.20;99.90;;;;;;5101140;28;20170;-86
2021/01/31 12:32:50;;;;;;;15.90;10.97;;;3.30;99.90;;;;;;5067091;28;20270;-85
2021/01/31 12:35:17;;;;;;;17.40;11.77;;;3.30;99.90;;;;;;5098348;28;20243;-84
2021/01/31 12:37:45;;;;;;;17.83;12.03;;;3.40;99.90;;;;;;5097258;28;20220;-87
2021/01/31 12:40:11;;;;;;;18.27;11.63;;;3.40;99.90;;;;;;5100918;28;20222;-92
2021/01/31 12:42:37;;;;;;;16.43;11.67;;;3.30;99.90;;;;;;5101073;28;20175;-86
2021/01/31 12:45:09;;;;;;;18.50;12.67;;;3.30;99.90;;;;;;5103656;28;20193;-86
2021/01/31 12:47:35;;;;;;;18.40;13.27;;;3.30;99.90;;;;;;5102718;28;20282;-85
2021/01/31 12:50:18;;;;;;;18.03;11.87;;;3.40;99.90;;;;;;5116614;28;20596;-89
2021/01/31 12:52:45;;;;;;;16.47;12.60;;;3.40;99.90;;;;;;5119754;28;20171;-86
2021/01/31 12:55:13;;;;;;;14.70;11.70;;;3.50;99.90;;;;;;5117232;28;20657;-87
2021/01/31 12:57:38;;;;;;;16.63;12.23;;;3.40;99.90;;;;;;5117632;28;20178;-86
2021/01/31 13:00:07;;;;;;;17.73;12.07;;;3.50;99.90;;;;;;5119391;28;20195;-85
2021/01/31 13:02:33;;;;;;;17.13;12.33;;;3.40;99.90;;;;;;5111070;28;20631;-89
2021/01/31 13:04:58;;;;;;;16.30;12.13;;;3.30;99.90;;;;;;5103558;28;20178;-92
2021/01/31 13:07:24;;;;;;;16.70;12.30;;;3.30;99.90;;;;;;5101351;28;20235;-89
2021/01/31 13:09:49;;;;;;;16.30;11.93;;;3.30;99.90;;;;;;5102466;28;20201;-94